Detall de PIREP

Printer-friendly versionPDF version

[2012/12/30 08:58:00]
Flight IATA:CT1004
Pilot Number:012
Company ICAO:CAT
Aircraft Type:MD11/E
PAX:201
Aircraft Registration:PAX
Departing Airport: LEPA
Destination Airport: LUKK
Alternate Airport:UKOO
Online: VATSIM
Route:MORSS/M082F360 UM603 ALG/M082F370 UL5 LAMIT UN978 BUSES
Flight Level:F320
No Slew and time accel
No pause
Crash detect
Detect pilot in Cockpit between each 30 and 45 minutes
08:58 Zero fuel Weight: 364241 Lbs, Fuel Weight: 81510 Lbs
08:58 VATSIM:LEPA 300830Z VRB02KT 9999 FEW022 09/07 Q1028 NOSIG
08:58 VATSIM:LUKK 300830Z 17003KT CAVOK M05/M09 Q1030 R08/CLRD60 NOSIG
08:58 VOICE CATALONIAN / X-MAS CHARTER
08:59 Parking Brakes off
09:05 Take-off
09:05 Take off Weight: 444542 Lbs
09:05 Wind: 002º @ 002 Knots Heading: 239º
09:05 POS N39º 33´ 16´´ E002º 43´ 35´´
09:05 Gear Up: 177 Knots
09:05 Flaps:3 at 178 Knots
09:06 Flaps:2 at 173 Knots
09:06 Flaps:3 at 175 Knots
09:06 Flaps:2 at 175 Knots
09:06 Flaps:1 at 175 Knots
09:07 Flaps:0 at 182 Knots
09:17 TOC
09:17 Fuel Weight: 72030 Lb
09:20 Wind:336º@044 Knots Heading: 054º Ground Speed: 461 Knots Altitude 36220 ft
09:35 Wind:271º@023 Knots Heading: 073º Ground Speed: 491 Knots Altitude 36354 ft
09:50 Wind:240º@018 Knots Heading: 068º Ground Speed: 487 Knots Altitude 37332 ft
10:05 Wind:233º@011 Knots Heading: 069º Ground Speed: 478 Knots Altitude 37283 ft
10:20 Wind:063º@004 Knots Heading: 058º Ground Speed: 465 Knots Altitude 37237 ft
10:35 Wind:174º@013 Knots Heading: 075º Ground Speed: 472 Knots Altitude 37316 ft
10:50 Wind:094º@024 Knots Heading: 070º Ground Speed: 448 Knots Altitude 37332 ft
11:05 Wind:110º@020 Knots Heading: 071º Ground Speed: 454 Knots Altitude 37355 ft
11:20 Wind:086º@017 Knots Heading: 056º Ground Speed: 455 Knots Altitude 37388 ft
11:35 Wind:045º@020 Knots Heading: 063º Ground Speed: 449 Knots Altitude 34215 ft
11:35 TOD
11:35 Fuel Weight: 38606 Lb
11:37 Gear Down: 294 Knots
11:37 Gear Up: 293 Knots
11:48 Flaps:1 at 256 Knots
11:50 Wind:242º@008 Knots Heading: 073º Ground Speed: 287 Knots Altitude 8303 ft
11:51 Flaps:2 at 258 Knots
11:51 Flaps:3 at 258 Knots
11:55 Flaps:4 at 216 Knots
11:55 Gear Down: 213 Knots
11:55 Flaps:3 at 213 Knots
11:55 Flaps:4 at 212 Knots
11:55 Flaps:5 at 208 Knots
11:55 Flaps:6 at 204 Knots
11:55 Flaps:7 at 184 Knots
11:58 TouchDown:Rate -391 ft/min Speed: 136 Knots
11:58 VATSIM:LUKK 301130Z 20005KT 160V230 CAVOK M01/M10 Q1027 R08/CLRD65 NOSIG
11:58 Land
11:58 Wind:185º@005 Knots
11:58 Heading: 090º
11:58 Flight Duration: 02:53
11:58 Landing Weight: 399653 Lbs
11:58 POS N46º 55´ 42´´ E028º 55´ 47´´
12:01 Parking brakes on
12:01 Block to Block Duration: 03:02
12:01 Final Fuel: 35099 Lbls
12:01 Spent Fuel: 46411 Lbls
12:01 Flight Length: 1273 NM
12:01 TOD Land Length: 119 NM

Exportar CSV

Powered by Drupal - Modified by Danger4k